Plasencia, Spain
Current Conditions -  °F | °C
As of 2:00 PM on Tuesday 21 Oct 2014 (Local Time) from LESA Reporting Station
Clear Clear  
Wind Chill: 81°   Ceiling: Unl
Heat Index: 81°   Visibility: 6mi
Dew Point: 43°   Wind: 0mph
Humidity: 26%   Direction: NA
Pressure: 30.39"   Gusts: NA
Location:  40.03°N, 6.08°W
Report Text: LESA 211200Z 00000KT CAVOK 27/06 Q1029
Loading
Personal Weather Stations






























Interactive Weather Map
Tropical Storm Tracking
New forecast layout! Learn more

10-Day Weather Forecast

Advertisements
Track Severe Weather on mobile